sensor_id;sensor_type;location;lat;lon;timestamp;temperature;humidity
76607;DHT22;65498;50.916;4.698;2023-05-27T00:02:10;22.70;48.20
76607;DHT22;65498;50.916;4.698;2023-05-27T00:04:37;22.70;48.40
76607;DHT22;65498;50.916;4.698;2023-05-27T00:07:05;22.60;48.00
76607;DHT22;65498;50.916;4.698;2023-05-27T00:09:32;22.60;47.90
76607;DHT22;65498;50.916;4.698;2023-05-27T00:12:01;22.60;48.00
76607;DHT22;65498;50.916;4.698;2023-05-27T00:14:28;22.60;48.30
76607;DHT22;65498;50.916;4.698;2023-05-27T00:16:56;22.60;47.80
76607;DHT22;65498;50.916;4.698;2023-05-27T00:19:24;22.60;47.20
76607;DHT22;65498;50.916;4.698;2023-05-27T00:21:51;22.60;47.80
76607;DHT22;65498;50.916;4.698;2023-05-27T00:24:19;22.60;48.00
76607;DHT22;65498;50.916;4.698;2023-05-27T00:26:47;22.60;48.30
76607;DHT22;65498;50.916;4.698;2023-05-27T00:29:16;22.60;47.80
76607;DHT22;65498;50.916;4.698;2023-05-27T00:31:44;22.60;48.00
76607;DHT22;65498;50.916;4.698;2023-05-27T00:34:12;22.60;48.40
76607;DHT22;65498;50.916;4.698;2023-05-27T00:36:39;22.60;48.40
76607;DHT22;65498;50.916;4.698;2023-05-27T00:39:07;22.60;48.20
76607;DHT22;65498;50.916;4.698;2023-05-27T00:41:34;22.60;48.20
76607;DHT22;65498;50.916;4.698;2023-05-27T00:44:02;22.60;48.00
76607;DHT22;65498;50.916;4.698;2023-05-27T00:46:30;22.60;48.60
76607;DHT22;65498;50.916;4.698;2023-05-27T00:48:57;22.60;48.30
76607;DHT22;65498;50.916;4.698;2023-05-27T00:51:25;22.50;48.40
76607;DHT22;65498;50.916;4.698;2023-05-27T00:53:52;22.50;48.40
76607;DHT22;65498;50.916;4.698;2023-05-27T00:56:20;22.50;48.30
76607;DHT22;65498;50.916;4.698;2023-05-27T00:58:48;22.50;47.80
76607;DHT22;65498;50.916;4.698;2023-05-27T01:01:16;22.50;48.20
76607;DHT22;65498;50.916;4.698;2023-05-27T01:03:43;22.50;48.10
76607;DHT22;65498;50.916;4.698;2023-05-27T01:06:38;22.50;48.00
76607;DHT22;65498;50.916;4.698;2023-05-27T01:12:23;22.50;48.10
76607;DHT22;65498;50.916;4.698;2023-05-27T01:14:49;22.50;47.80
76607;DHT22;65498;50.916;4.698;2023-05-27T01:17:19;22.50;48.50
76607;DHT22;65498;50.916;4.698;2023-05-27T01:19:48;22.50;47.80
76607;DHT22;65498;50.916;4.698;2023-05-27T01:22:18;22.40;48.00
76607;DHT22;65498;50.916;4.698;2023-05-27T01:24:47;22.50;48.10
76607;DHT22;65498;50.916;4.698;2023-05-27T01:27:14;22.40;48.10
76607;DHT22;65498;50.916;4.698;2023-05-27T01:29:42;22.40;47.90
76607;DHT22;65498;50.916;4.698;2023-05-27T01:32:35;22.40;48.20
76607;DHT22;65498;50.916;4.698;2023-05-27T01:35:07;22.40;47.70
76607;DHT22;65498;50.916;4.698;2023-05-27T01:37:37;22.40;48.20
76607;DHT22;65498;50.916;4.698;2023-05-27T01:40:07;22.40;48.00
76607;DHT22;65498;50.916;4.698;2023-05-27T01:42:34;22.40;48.00
76607;DHT22;65498;50.916;4.698;2023-05-27T01:45:04;22.40;48.20
76607;DHT22;65498;50.916;4.698;2023-05-27T01:47:32;22.40;48.40
76607;DHT22;65498;50.916;4.698;2023-05-27T01:50:00;22.30;48.20
76607;DHT22;65498;50.916;4.698;2023-05-27T01:52:28;22.40;48.10
76607;DHT22;65498;50.916;4.698;2023-05-27T01:54:55;22.40;47.80
76607;DHT22;65498;50.916;4.698;2023-05-27T01:57:25;22.40;47.50
76607;DHT22;65498;50.916;4.698;2023-05-27T01:59:52;22.40;48.40
76607;DHT22;65498;50.916;4.698;2023-05-27T02:02:20;22.40;48.30
76607;DHT22;65498;50.916;4.698;2023-05-27T02:04:48;22.40;47.60
76607;DHT22;65498;50.916;4.698;2023-05-27T02:07:15;22.40;48.00
76607;DHT22;65498;50.916;4.698;2023-05-27T02:09:43;22.40;48.40
76607;DHT22;65498;50.916;4.698;2023-05-27T02:12:11;22.40;47.90
76607;DHT22;65498;50.916;4.698;2023-05-27T02:14:39;22.40;48.20
76607;DHT22;65498;50.916;4.698;2023-05-27T02:17:07;22.40;48.70
76607;DHT22;65498;50.916;4.698;2023-05-27T02:19:35;22.40;48.20
76607;DHT22;65498;50.916;4.698;2023-05-27T02:22:02;22.30;48.20
76607;DHT22;65498;50.916;4.698;2023-05-27T02:24:30;22.40;48.20
76607;DHT22;65498;50.916;4.698;2023-05-27T02:26:58;22.40;47.90
76607;DHT22;65498;50.916;4.698;2023-05-27T02:29:26;22.30;48.20
76607;DHT22;65498;50.916;4.698;2023-05-27T02:31:54;22.30;47.70
76607;DHT22;65498;50.916;4.698;2023-05-27T02:34:21;22.30;48.20
76607;DHT22;65498;50.916;4.698;2023-05-27T02:36:49;22.30;47.80
76607;DHT22;65498;50.916;4.698;2023-05-27T02:39:17;22.30;47.70
76607;DHT22;65498;50.916;4.698;2023-05-27T02:41:44;22.30;47.80
76607;DHT22;65498;50.916;4.698;2023-05-27T02:44:12;22.30;48.10
76607;DHT22;65498;50.916;4.698;2023-05-27T02:46:39;22.30;48.00
76607;DHT22;65498;50.916;4.698;2023-05-27T02:49:07;22.30;47.70
76607;DHT22;65498;50.916;4.698;2023-05-27T02:51:35;22.30;48.10
76607;DHT22;65498;50.916;4.698;2023-05-27T02:54:03;22.30;48.20
76607;DHT22;65498;50.916;4.698;2023-05-27T02:56:30;22.30;47.70
76607;DHT22;65498;50.916;4.698;2023-05-27T02:58:58;22.30;47.90
76607;DHT22;65498;50.916;4.698;2023-05-27T03:01:25;22.30;48.10
76607;DHT22;65498;50.916;4.698;2023-05-27T03:03:53;22.30;48.10
76607;DHT22;65498;50.916;4.698;2023-05-27T03:06:20;22.30;48.00
76607;DHT22;65498;50.916;4.698;2023-05-27T03:08:48;22.30;48.00
76607;DHT22;65498;50.916;4.698;2023-05-27T03:11:16;22.30;48.00
76607;DHT22;65498;50.916;4.698;2023-05-27T03:13:43;22.20;47.70
76607;DHT22;65498;50.916;4.698;2023-05-27T03:16:10;22.20;47.70
76607;DHT22;65498;50.916;4.698;2023-05-27T03:18:39;22.20;48.00
76607;DHT22;65498;50.916;4.698;2023-05-27T03:21:07;22.20;48.00
76607;DHT22;65498;50.916;4.698;2023-05-27T03:23:34;22.20;48.00
76607;DHT22;65498;50.916;4.698;2023-05-27T03:26:02;22.20;47.60
76607;DHT22;65498;50.916;4.698;2023-05-27T03:28:29;22.20;47.80
76607;DHT22;65498;50.916;4.698;2023-05-27T03:30:57;22.20;47.60
76607;DHT22;65498;50.916;4.698;2023-05-27T03:33:24;22.20;48.50
76607;DHT22;65498;50.916;4.698;2023-05-27T03:35:52;22.20;48.10
76607;DHT22;65498;50.916;4.698;2023-05-27T03:38:21;22.20;47.60
76607;DHT22;65498;50.916;4.698;2023-05-27T03:40:49;22.20;48.10
76607;DHT22;65498;50.916;4.698;2023-05-27T03:43:16;22.20;48.40
76607;DHT22;65498;50.916;4.698;2023-05-27T03:45:44;22.20;47.70
76607;DHT22;65498;50.916;4.698;2023-05-27T03:48:11;22.20;48.10
76607;DHT22;65498;50.916;4.698;2023-05-27T03:50:39;22.10;47.90
76607;DHT22;65498;50.916;4.698;2023-05-27T03:53:06;22.10;47.90
76607;DHT22;65498;50.916;4.698;2023-05-27T03:55:34;22.10;47.60
76607;DHT22;65498;50.916;4.698;2023-05-27T03:58:01;22.10;47.90
76607;DHT22;65498;50.916;4.698;2023-05-27T04:00:30;22.20;48.20
76607;DHT22;65498;50.916;4.698;2023-05-27T04:02:58;22.20;48.10
76607;DHT22;65498;50.916;4.698;2023-05-27T04:05:25;22.10;48.10
76607;DHT22;65498;50.916;4.698;2023-05-27T04:07:53;22.10;48.00
76607;DHT22;65498;50.916;4.698;2023-05-27T04:10:20;22.10;47.50
76607;DHT22;65498;50.916;4.698;2023-05-27T04:12:48;22.10;47.70
76607;DHT22;65498;50.916;4.698;2023-05-27T04:15:16;22.10;47.70
76607;DHT22;65498;50.916;4.698;2023-05-27T04:17:43;22.20;47.20
76607;DHT22;65498;50.916;4.698;2023-05-27T04:20:11;22.20;48.00
76607;DHT22;65498;50.916;4.698;2023-05-27T04:22:40;22.10;47.80
76607;DHT22;65498;50.916;4.698;2023-05-27T04:25:09;22.10;48.00
76607;DHT22;65498;50.916;4.698;2023-05-27T04:27:37;22.10;48.20
76607;DHT22;65498;50.916;4.698;2023-05-27T04:30:05;22.10;49.00
76607;DHT22;65498;50.916;4.698;2023-05-27T04:32:33;22.10;47.70
76607;DHT22;65498;50.916;4.698;2023-05-27T04:35:04;22.10;48.00
76607;DHT22;65498;50.916;4.698;2023-05-27T04:37:32;22.10;48.10
76607;DHT22;65498;50.916;4.698;2023-05-27T04:40:00;22.10;47.90
76607;DHT22;65498;50.916;4.698;2023-05-27T04:42:27;22.00;48.10
76607;DHT22;65498;50.916;4.698;2023-05-27T04:44:55;22.10;48.80
76607;DHT22;65498;50.916;4.698;2023-05-27T04:47:23;22.10;47.90
76607;DHT22;65498;50.916;4.698;2023-05-27T04:49:50;22.10;48.30
76607;DHT22;65498;50.916;4.698;2023-05-27T04:52:18;22.10;48.00
76607;DHT22;65498;50.916;4.698;2023-05-27T04:54:47;22.10;48.00
76607;DHT22;65498;50.916;4.698;2023-05-27T04:57:15;22.10;48.50
76607;DHT22;65498;50.916;4.698;2023-05-27T04:59:45;22.10;48.40
76607;DHT22;65498;50.916;4.698;2023-05-27T05:02:15;22.10;48.60
76607;DHT22;65498;50.916;4.698;2023-05-27T05:04:49;22.10;48.30
76607;DHT22;65498;50.916;4.698;2023-05-27T05:07:17;22.10;48.80
76607;DHT22;65498;50.916;4.698;2023-05-27T05:09:45;22.10;48.80
76607;DHT22;65498;50.916;4.698;2023-05-27T05:12:13;22.20;48.50
76607;DHT22;65498;50.916;4.698;2023-05-27T05:14:40;22.10;48.40
76607;DHT22;65498;50.916;4.698;2023-05-27T05:17:08;22.20;49.10
76607;DHT22;65498;50.916;4.698;2023-05-27T05:19:35;22.20;48.70
76607;DHT22;65498;50.916;4.698;2023-05-27T05:22:03;22.20;48.70
76607;DHT22;65498;50.916;4.698;2023-05-27T05:24:31;22.20;48.40
76607;DHT22;65498;50.916;4.698;2023-05-27T05:26:59;22.20;46.40
76607;DHT22;65498;50.916;4.698;2023-05-27T05:29:26;22.30;46.50
76607;DHT22;65498;50.916;4.698;2023-05-27T05:31:54;22.30;46.80
76607;DHT22;65498;50.916;4.698;2023-05-27T05:34:21;22.20;46.20
76607;DHT22;65498;50.916;4.698;2023-05-27T05:36:49;22.30;45.80
76607;DHT22;65498;50.916;4.698;2023-05-27T05:39:16;22.30;46.50
76607;DHT22;65498;50.916;4.698;2023-05-27T05:41:44;22.30;47.00
76607;DHT22;65498;50.916;4.698;2023-05-27T05:44:12;22.30;46.10
76607;DHT22;65498;50.916;4.698;2023-05-27T05:46:40;22.30;45.30
76607;DHT22;65498;50.916;4.698;2023-05-27T05:49:07;22.30;45.20
76607;DHT22;65498;50.916;4.698;2023-05-27T05:51:35;22.30;45.70
76607;DHT22;65498;50.916;4.698;2023-05-27T05:54:02;22.40;45.30
76607;DHT22;65498;50.916;4.698;2023-05-27T05:56:30;22.30;47.20
76607;DHT22;65498;50.916;4.698;2023-05-27T05:58:57;22.30;45.40
76607;DHT22;65498;50.916;4.698;2023-05-27T06:01:25;22.30;46.60
76607;DHT22;65498;50.916;4.698;2023-05-27T06:03:55;22.30;46.90
76607;DHT22;65498;50.916;4.698;2023-05-27T06:06:22;22.40;46.20
76607;DHT22;65498;50.916;4.698;2023-05-27T06:08:50;22.40;46.50
76607;DHT22;65498;50.916;4.698;2023-05-27T06:11:18;22.40;46.30
76607;DHT22;65498;50.916;4.698;2023-05-27T06:13:45;22.40;46.80
76607;DHT22;65498;50.916;4.698;2023-05-27T06:16:13;22.40;46.00
76607;DHT22;65498;50.916;4.698;2023-05-27T06:18:40;22.40;47.00
76607;DHT22;65498;50.916;4.698;2023-05-27T06:21:10;22.40;46.60
76607;DHT22;65498;50.916;4.698;2023-05-27T06:23:37;22.40;46.70
76607;DHT22;65498;50.916;4.698;2023-05-27T06:26:05;22.40;47.20
76607;DHT22;65498;50.916;4.698;2023-05-27T06:28:32;22.40;47.20
76607;DHT22;65498;50.916;4.698;2023-05-27T06:31:00;22.40;47.60
76607;DHT22;65498;50.916;4.698;2023-05-27T06:33:27;22.40;47.30
76607;DHT22;65498;50.916;4.698;2023-05-27T06:35:55;22.40;47.10
76607;DHT22;65498;50.916;4.698;2023-05-27T06:38:23;22.40;46.70
76607;DHT22;65498;50.916;4.698;2023-05-27T06:40:51;22.40;47.20
76607;DHT22;65498;50.916;4.698;2023-05-27T06:43:19;22.50;47.10
76607;DHT22;65498;50.916;4.698;2023-05-27T06:45:46;22.40;46.20
76607;DHT22;65498;50.916;4.698;2023-05-27T06:48:14;22.50;46.50
76607;DHT22;65498;50.916;4.698;2023-05-27T06:50:41;22.50;46.30
76607;DHT22;65498;50.916;4.698;2023-05-27T06:53:09;22.50;46.10
76607;DHT22;65498;50.916;4.698;2023-05-27T06:55:37;22.40;46.70
76607;DHT22;65498;50.916;4.698;2023-05-27T06:58:04;22.50;46.70
76607;DHT22;65498;50.916;4.698;2023-05-27T07:00:33;22.50;46.40
76607;DHT22;65498;50.916;4.698;2023-05-27T07:03:01;22.40;46.50
76607;DHT22;65498;50.916;4.698;2023-05-27T07:05:28;22.40;46.60
76607;DHT22;65498;50.916;4.698;2023-05-27T07:07:55;22.40;46.90
76607;DHT22;65498;50.916;4.698;2023-05-27T07:10:23;22.40;47.00
76607;DHT22;65498;50.916;4.698;2023-05-27T07:12:51;22.40;46.70
76607;DHT22;65498;50.916;4.698;2023-05-27T07:15:18;22.40;46.20
76607;DHT22;65498;50.916;4.698;2023-05-27T07:17:46;22.40;47.40
76607;DHT22;65498;50.916;4.698;2023-05-27T07:20:13;22.40;47.00
76607;DHT22;65498;50.916;4.698;2023-05-27T07:22:41;22.40;47.50
76607;DHT22;65498;50.916;4.698;2023-05-27T07:25:09;22.40;47.20
76607;DHT22;65498;50.916;4.698;2023-05-27T07:27:37;22.40;47.20
76607;DHT22;65498;50.916;4.698;2023-05-27T07:30:05;22.40;47.40
76607;DHT22;65498;50.916;4.698;2023-05-27T07:32:33;22.40;47.90
76607;DHT22;65498;50.916;4.698;2023-05-27T07:35:01;22.40;47.20
76607;DHT22;65498;50.916;4.698;2023-05-27T07:37:28;22.50;47.30
76607;DHT22;65498;50.916;4.698;2023-05-27T07:39:56;22.40;47.70
76607;DHT22;65498;50.916;4.698;2023-05-27T07:42:24;22.40;47.70
76607;DHT22;65498;50.916;4.698;2023-05-27T07:44:53;22.40;48.00
76607;DHT22;65498;50.916;4.698;2023-05-27T07:47:21;22.40;48.50
76607;DHT22;65498;50.916;4.698;2023-05-27T07:49:50;22.40;48.10
76607;DHT22;65498;50.916;4.698;2023-05-27T07:52:17;22.40;48.00
76607;DHT22;65498;50.916;4.698;2023-05-27T07:54:45;22.40;47.80
76607;DHT22;65498;50.916;4.698;2023-05-27T07:57:14;22.50;47.40
76607;DHT22;65498;50.916;4.698;2023-05-27T07:59:43;22.50;47.70
76607;DHT22;65498;50.916;4.698;2023-05-27T08:02:11;22.50;47.30
76607;DHT22;65498;50.916;4.698;2023-05-27T08:04:38;22.50;47.00
76607;DHT22;65498;50.916;4.698;2023-05-27T08:07:06;22.60;47.80
76607;DHT22;65498;50.916;4.698;2023-05-27T08:09:34;22.70;47.20
76607;DHT22;65498;50.916;4.698;2023-05-27T08:12:01;22.70;47.90
76607;DHT22;65498;50.916;4.698;2023-05-27T08:14:29;22.80;47.30
76607;DHT22;65498;50.916;4.698;2023-05-27T08:16:56;22.80;48.70
76607;DHT22;65498;50.916;4.698;2023-05-27T08:19:24;22.80;48.70
76607;DHT22;65498;50.916;4.698;2023-05-27T08:21:51;22.80;47.80
76607;DHT22;65498;50.916;4.698;2023-05-27T08:24:19;22.80;48.70
76607;DHT22;65498;50.916;4.698;2023-05-27T08:26:48;22.70;47.20
76607;DHT22;65498;50.916;4.698;2023-05-27T08:29:16;22.70;46.80
76607;DHT22;65498;50.916;4.698;2023-05-27T08:31:45;22.60;48.70
76607;DHT22;65498;50.916;4.698;2023-05-27T08:34:12;22.70;46.80
76607;DHT22;65498;50.916;4.698;2023-05-27T08:36:40;22.70;47.00
76607;DHT22;65498;50.916;4.698;2023-05-27T08:39:07;22.70;46.90
76607;DHT22;65498;50.916;4.698;2023-05-27T08:41:37;22.70;48.20
76607;DHT22;65498;50.916;4.698;2023-05-27T08:44:04;22.60;48.80
76607;DHT22;65498;50.916;4.698;2023-05-27T08:46:32;22.60;49.50
76607;DHT22;65498;50.916;4.698;2023-05-27T08:49:01;22.60;49.70
76607;DHT22;65498;50.916;4.698;2023-05-27T08:51:29;22.60;49.50
76607;DHT22;65498;50.916;4.698;2023-05-27T08:53:56;22.60;50.00
76607;DHT22;65498;50.916;4.698;2023-05-27T08:56:24;22.60;49.60
76607;DHT22;65498;50.916;4.698;2023-05-27T08:58:53;22.60;49.20
76607;DHT22;65498;50.916;4.698;2023-05-27T09:01:23;22.60;49.30
76607;DHT22;65498;50.916;4.698;2023-05-27T09:03:52;22.60;49.10
76607;DHT22;65498;50.916;4.698;2023-05-27T09:06:21;22.50;49.20
76607;DHT22;65498;50.916;4.698;2023-05-27T09:08:49;22.60;49.40
76607;DHT22;65498;50.916;4.698;2023-05-27T09:11:24;22.60;48.80
76607;DHT22;65498;50.916;4.698;2023-05-27T09:13:55;22.60;47.50
76607;DHT22;65498;50.916;4.698;2023-05-27T09:16:23;22.60;47.20
76607;DHT22;65498;50.916;4.698;2023-05-27T09:18:51;22.70;48.70
76607;DHT22;65498;50.916;4.698;2023-05-27T09:21:18;22.70;48.60
76607;DHT22;65498;50.916;4.698;2023-05-27T09:23:46;22.60;50.10
76607;DHT22;65498;50.916;4.698;2023-05-27T09:26:14;22.70;50.10
76607;DHT22;65498;50.916;4.698;2023-05-27T09:28:41;22.60;48.40
76607;DHT22;65498;50.916;4.698;2023-05-27T09:31:09;22.60;50.00
76607;DHT22;65498;50.916;4.698;2023-05-27T09:33:39;22.60;50.40
76607;DHT22;65498;50.916;4.698;2023-05-27T09:36:07;22.60;50.30
76607;DHT22;65498;50.916;4.698;2023-05-27T09:38:37;22.60;50.70
76607;DHT22;65498;50.916;4.698;2023-05-27T09:41:04;22.60;50.80
76607;DHT22;65498;50.916;4.698;2023-05-27T09:43:32;22.60;51.10
76607;DHT22;65498;50.916;4.698;2023-05-27T09:46:01;22.70;50.80
76607;DHT22;65498;50.916;4.698;2023-05-27T09:48:30;22.80;50.70
76607;DHT22;65498;50.916;4.698;2023-05-27T09:51:01;22.90;50.50
76607;DHT22;65498;50.916;4.698;2023-05-27T09:53:30;23.10;49.80
76607;DHT22;65498;50.916;4.698;2023-05-27T09:56:00;23.10;50.10
76607;DHT22;65498;50.916;4.698;2023-05-27T09:58:28;23.20;49.80
76607;DHT22;65498;50.916;4.698;2023-05-27T10:00:56;23.20;50.00
76607;DHT22;65498;50.916;4.698;2023-05-27T10:03:24;23.10;50.20
76607;DHT22;65498;50.916;4.698;2023-05-27T10:05:51;23.00;50.40
76607;DHT22;65498;50.916;4.698;2023-05-27T10:08:20;23.00;50.40
76607;DHT22;65498;50.916;4.698;2023-05-27T10:10:48;23.00;50.30
76607;DHT22;65498;50.916;4.698;2023-05-27T10:13:16;23.00;50.30
76607;DHT22;65498;50.916;4.698;2023-05-27T10:15:51;23.00;50.40
76607;DHT22;65498;50.916;4.698;2023-05-27T10:18:26;23.10;50.40
76607;DHT22;65498;50.916;4.698;2023-05-27T10:20:57;23.30;50.10
76607;DHT22;65498;50.916;4.698;2023-05-27T10:23:29;23.30;49.80
76607;DHT22;65498;50.916;4.698;2023-05-27T10:26:07;23.30;49.60
76607;DHT22;65498;50.916;4.698;2023-05-27T10:28:37;23.10;50.00
76607;DHT22;65498;50.916;4.698;2023-05-27T10:31:16;23.10;50.30
76607;DHT22;65498;50.916;4.698;2023-05-27T10:33:46;23.10;50.70
76607;DHT22;65498;50.916;4.698;2023-05-27T10:36:16;23.00;50.60
76607;DHT22;65498;50.916;4.698;2023-05-27T10:38:56;23.00;50.60
76607;DHT22;65498;50.916;4.698;2023-05-27T10:41:24;22.90;50.80
76607;DHT22;65498;50.916;4.698;2023-05-27T10:43:56;22.90;51.00
76607;DHT22;65498;50.916;4.698;2023-05-27T10:46:24;22.90;51.00
76607;DHT22;65498;50.916;4.698;2023-05-27T10:48:52;22.90;51.10
76607;DHT22;65498;50.916;4.698;2023-05-27T10:51:30;22.90;51.80
76607;DHT22;65498;50.916;4.698;2023-05-27T10:53:49;22.90;53.70
76607;DHT22;65498;50.916;4.698;2023-05-27T10:56:17;22.90;52.10
76607;DHT22;65498;50.916;4.698;2023-05-27T10:58:45;23.00;51.60
76607;DHT22;65498;50.916;4.698;2023-05-27T11:01:14;23.00;51.50
76607;DHT22;65498;50.916;4.698;2023-05-27T11:03:44;23.00;52.00
76607;DHT22;65498;50.916;4.698;2023-05-27T11:06:12;22.90;51.40
76607;DHT22;65498;50.916;4.698;2023-05-27T11:08:42;22.90;51.30
76607;DHT22;65498;50.916;4.698;2023-05-27T11:11:12;23.00;51.50
76607;DHT22;65498;50.916;4.698;2023-05-27T11:13:45;23.00;51.50
76607;DHT22;65498;50.916;4.698;2023-05-27T11:16:13;23.00;51.40
76607;DHT22;65498;50.916;4.698;2023-05-27T11:18:46;23.00;51.40
76607;DHT22;65498;50.916;4.698;2023-05-27T11:21:16;23.10;51.10
76607;DHT22;65498;50.916;4.698;2023-05-27T11:23:47;23.10;51.20
76607;DHT22;65498;50.916;4.698;2023-05-27T11:26:22;23.10;50.90
76607;DHT22;65498;50.916;4.698;2023-05-27T11:28:56;23.20;50.70
76607;DHT22;65498;50.916;4.698;2023-05-27T11:31:28;23.20;50.60
76607;DHT22;65498;50.916;4.698;2023-05-27T11:33:55;23.20;50.50
76607;DHT22;65498;50.916;4.698;2023-05-27T11:36:27;23.30;50.20
76607;DHT22;65498;50.916;4.698;2023-05-27T11:38:59;23.30;49.90
76607;DHT22;65498;50.916;4.698;2023-05-27T11:41:29;23.30;49.80
76607;DHT22;65498;50.916;4.698;2023-05-27T11:44:03;23.30;49.40
76607;DHT22;65498;50.916;4.698;2023-05-27T11:46:44;23.30;49.40
76607;DHT22;65498;50.916;4.698;2023-05-27T11:49:13;23.40;49.40
76607;DHT22;65498;50.916;4.698;2023-05-27T11:51:49;23.40;49.50
76607;DHT22;65498;50.916;4.698;2023-05-27T11:54:24;23.40;49.30
76607;DHT22;65498;50.916;4.698;2023-05-27T11:56:53;23.30;49.50
76607;DHT22;65498;50.916;4.698;2023-05-27T11:59:22;23.40;49.30
76607;DHT22;65498;50.916;4.698;2023-05-27T12:01:51;23.40;49.20
76607;DHT22;65498;50.916;4.698;2023-05-27T12:04:21;23.40;49.20
76607;DHT22;65498;50.916;4.698;2023-05-27T12:06:48;23.40;49.10
76607;DHT22;65498;50.916;4.698;2023-05-27T12:09:16;23.40;48.60
76607;DHT22;65498;50.916;4.698;2023-05-27T12:11:43;23.40;48.60
76607;DHT22;65498;50.916;4.698;2023-05-27T12:14:11;23.40;48.30
76607;DHT22;65498;50.916;4.698;2023-05-27T12:16:38;23.40;48.30
76607;DHT22;65498;50.916;4.698;2023-05-27T12:19:06;23.40;48.10
76607;DHT22;65498;50.916;4.698;2023-05-27T12:21:33;23.40;47.90
76607;DHT22;65498;50.916;4.698;2023-05-27T12:24:01;23.40;47.60
76607;DHT22;65498;50.916;4.698;2023-05-27T12:26:28;23.50;47.50
76607;DHT22;65498;50.916;4.698;2023-05-27T12:28:58;23.50;47.10
76607;DHT22;65498;50.916;4.698;2023-05-27T12:31:25;23.50;46.90
76607;DHT22;65498;50.916;4.698;2023-05-27T12:33:53;23.50;46.60
76607;DHT22;65498;50.916;4.698;2023-05-27T12:36:20;23.50;46.60
76607;DHT22;65498;50.916;4.698;2023-05-27T12:38:48;23.50;46.70
76607;DHT22;65498;50.916;4.698;2023-05-27T12:41:15;23.50;46.90
76607;DHT22;65498;50.916;4.698;2023-05-27T12:43:43;23.40;47.20
76607;DHT22;65498;50.916;4.698;2023-05-27T12:46:10;23.40;47.20
76607;DHT22;65498;50.916;4.698;2023-05-27T12:48:39;23.40;47.30
76607;DHT22;65498;50.916;4.698;2023-05-27T12:51:07;23.40;47.40
76607;DHT22;65498;50.916;4.698;2023-05-27T12:53:34;23.30;47.40
76607;DHT22;65498;50.916;4.698;2023-05-27T12:56:02;23.40;47.20
76607;DHT22;65498;50.916;4.698;2023-05-27T12:58:29;23.40;47.20
76607;DHT22;65498;50.916;4.698;2023-05-27T13:00:57;23.50;47.30
76607;DHT22;65498;50.916;4.698;2023-05-27T13:03:24;23.40;47.20
76607;DHT22;65498;50.916;4.698;2023-05-27T13:05:52;23.40;47.30
76607;DHT22;65498;50.916;4.698;2023-05-27T13:08:20;23.40;47.30
76607;DHT22;65498;50.916;4.698;2023-05-27T13:10:47;23.40;47.40
76607;DHT22;65498;50.916;4.698;2023-05-27T13:13:15;23.40;47.80
76607;DHT22;65498;50.916;4.698;2023-05-27T13:15:42;23.40;47.30
76607;DHT22;65498;50.916;4.698;2023-05-27T13:18:10;23.40;47.40
76607;DHT22;65498;50.916;4.698;2023-05-27T13:20:38;23.40;47.50
76607;DHT22;65498;50.916;4.698;2023-05-27T13:23:05;23.40;47.00
76607;DHT22;65498;50.916;4.698;2023-05-27T13:25:33;23.40;47.30
76607;DHT22;65498;50.916;4.698;2023-05-27T13:28:01;23.40;47.10
76607;DHT22;65498;50.916;4.698;2023-05-27T13:30:29;23.50;47.00
76607;DHT22;65498;50.916;4.698;2023-05-27T13:32:56;23.50;46.90
76607;DHT22;65498;50.916;4.698;2023-05-27T13:35:24;23.50;46.20
76607;DHT22;65498;50.916;4.698;2023-05-27T13:37:51;23.50;46.70
76607;DHT22;65498;50.916;4.698;2023-05-27T13:40:19;23.50;46.50
76607;DHT22;65498;50.916;4.698;2023-05-27T13:42:47;23.50;47.10
76607;DHT22;65498;50.916;4.698;2023-05-27T13:45:14;23.40;47.30
76607;DHT22;65498;50.916;4.698;2023-05-27T13:47:42;23.50;47.30
76607;DHT22;65498;50.916;4.698;2023-05-27T13:50:10;23.40;47.20
76607;DHT22;65498;50.916;4.698;2023-05-27T13:52:38;23.50;47.50
76607;DHT22;65498;50.916;4.698;2023-05-27T13:55:07;23.50;47.40
76607;DHT22;65498;50.916;4.698;2023-05-27T13:57:35;23.60;47.40
76607;DHT22;65498;50.916;4.698;2023-05-27T14:00:02;23.50;47.60
76607;DHT22;65498;50.916;4.698;2023-05-27T14:02:32;23.50;47.30
76607;DHT22;65498;50.916;4.698;2023-05-27T14:04:59;23.50;46.60
76607;DHT22;65498;50.916;4.698;2023-05-27T14:07:28;23.60;46.20
76607;DHT22;65498;50.916;4.698;2023-05-27T14:09:56;23.60;46.40
76607;DHT22;65498;50.916;4.698;2023-05-27T14:12:24;23.60;45.90
76607;DHT22;65498;50.916;4.698;2023-05-27T14:14:52;23.50;45.70
76607;DHT22;65498;50.916;4.698;2023-05-27T14:17:19;23.60;45.40
76607;DHT22;65498;50.916;4.698;2023-05-27T14:19:47;23.60;45.00
76607;DHT22;65498;50.916;4.698;2023-05-27T14:22:15;23.50;44.90
76607;DHT22;65498;50.916;4.698;2023-05-27T14:24:42;23.60;44.60
76607;DHT22;65498;50.916;4.698;2023-05-27T14:27:10;23.60;44.50
76607;DHT22;65498;50.916;4.698;2023-05-27T14:29:37;23.60;44.30
76607;DHT22;65498;50.916;4.698;2023-05-27T14:32:07;23.60;44.00
76607;DHT22;65498;50.916;4.698;2023-05-27T14:34:34;23.70;43.80
76607;DHT22;65498;50.916;4.698;2023-05-27T14:37:02;23.70;43.60
76607;DHT22;65498;50.916;4.698;2023-05-27T14:39:29;23.70;43.10
76607;DHT22;65498;50.916;4.698;2023-05-27T14:41:57;23.80;43.20
76607;DHT22;65498;50.916;4.698;2023-05-27T14:44:24;23.80;43.10
76607;DHT22;65498;50.916;4.698;2023-05-27T14:46:52;23.80;43.30
76607;DHT22;65498;50.916;4.698;2023-05-27T14:49:19;23.80;43.40
76607;DHT22;65498;50.916;4.698;2023-05-27T14:51:47;23.80;43.60
76607;DHT22;65498;50.916;4.698;2023-05-27T14:54:14;23.80;44.00
76607;DHT22;65498;50.916;4.698;2023-05-27T14:56:42;23.70;44.50
76607;DHT22;65498;50.916;4.698;2023-05-27T14:59:09;23.70;44.90
76607;DHT22;65498;50.916;4.698;2023-05-27T15:01:37;23.70;45.00
76607;DHT22;65498;50.916;4.698;2023-05-27T15:04:05;23.70;45.30
76607;DHT22;65498;50.916;4.698;2023-05-27T15:06:32;23.70;45.40
76607;DHT22;65498;50.916;4.698;2023-05-27T15:09:00;23.70;45.40
76607;DHT22;65498;50.916;4.698;2023-05-27T15:11:29;23.70;45.60
76607;DHT22;65498;50.916;4.698;2023-05-27T15:13:57;23.70;45.50
76607;DHT22;65498;50.916;4.698;2023-05-27T15:16:26;23.70;45.40
76607;DHT22;65498;50.916;4.698;2023-05-27T15:18:54;23.70;45.00
76607;DHT22;65498;50.916;4.698;2023-05-27T15:21:21;23.80;44.80
76607;DHT22;65498;50.916;4.698;2023-05-27T15:23:49;23.80;44.50
76607;DHT22;65498;50.916;4.698;2023-05-27T15:26:16;23.80;44.00
76607;DHT22;65498;50.916;4.698;2023-05-27T15:28:44;23.80;43.70
76607;DHT22;65498;50.916;4.698;2023-05-27T15:31:12;23.80;43.60
76607;DHT22;65498;50.916;4.698;2023-05-27T15:33:39;23.70;43.90
76607;DHT22;65498;50.916;4.698;2023-05-27T15:36:07;23.70;44.30
76607;DHT22;65498;50.916;4.698;2023-05-27T15:38:36;23.70;44.60
76607;DHT22;65498;50.916;4.698;2023-05-27T15:41:03;23.70;44.80